sensor_id;sensor_type;location;lat;lon;timestamp;pressure;altitude;pressure_sealevel;temperature;humidity
37792;BME280;29527;55.766;37.570;2024-01-06T00:02:08;99438.53;;;-15.50;51.43
37792;BME280;29527;55.766;37.570;2024-01-06T00:04:34;99437.75;;;-15.45;51.73
37792;BME280;29527;55.766;37.570;2024-01-06T00:06:59;99423.41;;;-15.33;51.91
37792;BME280;29527;55.766;37.570;2024-01-06T00:09:25;99419.91;;;-15.37;51.87
37792;BME280;29527;55.766;37.570;2024-01-06T00:11:50;99423.41;;;-15.33;52.12
37792;BME280;29527;55.766;37.570;2024-01-06T00:14:16;99424.34;;;-15.30;52.39
37792;BME280;29527;55.766;37.570;2024-01-06T00:16:42;99427.84;;;-15.23;52.06
37792;BME280;29527;55.766;37.570;2024-01-06T00:19:07;99384.59;;;-15.52;51.86
37792;BME280;29527;55.766;37.570;2024-01-06T00:21:33;99419.97;;;-15.35;52.37
37792;BME280;29527;55.766;37.570;2024-01-06T00:23:58;99415.66;;;-15.36;53.14
37792;BME280;29527;55.766;37.570;2024-01-06T00:26:24;99407.06;;;-15.38;52.81
37792;BME280;29527;55.766;37.570;2024-01-06T00:28:52;99420.19;;;-15.20;52.96
37792;BME280;29527;55.766;37.570;2024-01-06T00:31:18;99398.16;;;-15.08;52.72
37792;BME280;29527;55.766;37.570;2024-01-06T00:33:44;99409.31;;;-15.06;52.44
37792;BME280;29527;55.766;37.570;2024-01-06T00:36:10;99397.84;;;-15.28;52.95
37792;BME280;29527;55.766;37.570;2024-01-06T00:38:36;99409.69;;;-15.34;53.38
37792;BME280;29527;55.766;37.570;2024-01-06T00:41:02;99415.66;;;-15.36;53.10
37792;BME280;29527;55.766;37.570;2024-01-06T00:43:27;99410.59;;;-15.32;53.51
37792;BME280;29527;55.766;37.570;2024-01-06T00:45:53;99420.94;;;-15.27;54.03
37792;BME280;29527;55.766;37.570;2024-01-06T00:48:18;99414.22;;;-15.20;53.46
37792;BME280;29527;55.766;37.570;2024-01-06T00:50:44;99409.03;;;-15.22;53.69
37792;BME280;29527;55.766;37.570;2024-01-06T00:53:10;99421.09;;;-15.19;54.29
37792;BME280;29527;55.766;37.570;2024-01-06T00:55:36;99419.34;;;-15.20;53.84
37792;BME280;29527;55.766;37.570;2024-01-06T00:58:01;99422.63;;;-15.29;54.35
37792;BME280;29527;55.766;37.570;2024-01-06T01:00:27;99416.66;;;-15.28;54.37
37792;BME280;29527;55.766;37.570;2024-01-06T01:02:53;99419.34;;;-15.20;53.75
37792;BME280;29527;55.766;37.570;2024-01-06T01:05:18;99415.91;;;-15.22;54.18
37792;BME280;29527;55.766;37.570;2024-01-06T01:07:44;99414.25;;;-15.19;54.08
37792;BME280;29527;55.766;37.570;2024-01-06T01:10:10;99423.78;;;-15.10;54.02
37792;BME280;29527;55.766;37.570;2024-01-06T01:12:35;99427.25;;;-15.08;54.21
37792;BME280;29527;55.766;37.570;2024-01-06T01:15:01;99426.31;;;-15.13;54.10
37792;BME280;29527;55.766;37.570;2024-01-06T01:17:29;99435.00;;;-15.06;53.73
37792;BME280;29527;55.766;37.570;2024-01-06T01:19:55;99435.03;;;-15.03;53.77
37792;BME280;29527;55.766;37.570;2024-01-06T01:22:20;99434.28;;;-14.97;53.35
37792;BME280;29527;55.766;37.570;2024-01-06T01:24:46;99435.97;;;-14.99;53.04
37792;BME280;29527;55.766;37.570;2024-01-06T01:27:12;99433.25;;;-15.07;53.24
37792;BME280;29527;55.766;37.570;2024-01-06T01:29:37;99423.88;;;-15.05;53.25
37792;BME280;29527;55.766;37.570;2024-01-06T01:32:03;99432.56;;;-14.98;53.13
37792;BME280;29527;55.766;37.570;2024-01-06T01:34:29;99418.84;;;-14.99;53.11
37792;BME280;29527;55.766;37.570;2024-01-06T01:36:54;99435.13;;;-14.97;53.30
37792;BME280;29527;55.766;37.570;2024-01-06T01:39:20;99424.84;;;-14.97;52.77
37792;BME280;29527;55.766;37.570;2024-01-06T01:41:46;99430.03;;;-14.95;52.96
37792;BME280;29527;55.766;37.570;2024-01-06T01:44:12;99423.22;;;-14.93;53.27
37792;BME280;29527;55.766;37.570;2024-01-06T01:46:37;99416.31;;;-14.96;52.92
37792;BME280;29527;55.766;37.570;2024-01-06T01:49:04;99423.38;;;-14.82;53.00
37792;BME280;29527;55.766;37.570;2024-01-06T01:51:31;99405.06;;;-15.04;53.19
37792;BME280;29527;55.766;37.570;2024-01-06T01:53:59;99428.19;;;-15.04;53.06
37792;BME280;29527;55.766;37.570;2024-01-06T01:56:26;99409.25;;;-15.09;52.97
37792;BME280;29527;55.766;37.570;2024-01-06T01:58:52;99397.22;;;-15.13;53.29
37792;BME280;29527;55.766;37.570;2024-01-06T02:01:18;99404.09;;;-15.12;53.48
37792;BME280;29527;55.766;37.570;2024-01-06T02:03:44;99397.16;;;-15.17;53.45
37792;BME280;29527;55.766;37.570;2024-01-06T02:06:10;99395.63;;;-15.07;53.50
37792;BME280;29527;55.766;37.570;2024-01-06T02:08:37;99356.72;;;-15.30;53.82
37792;BME280;29527;55.766;37.570;2024-01-06T02:11:03;99404.31;;;-14.97;53.66
37792;BME280;29527;55.766;37.570;2024-01-06T02:13:36;99409.41;;;-15.00;53.67
37792;BME280;29527;55.766;37.570;2024-01-06T02:16:04;99402.56;;;-14.98;53.62
37792;BME280;29527;55.766;37.570;2024-01-06T02:18:32;99404.25;;;-15.00;53.97
37792;BME280;29527;55.766;37.570;2024-01-06T02:21:00;99410.28;;;-14.98;53.91
37792;BME280;29527;55.766;37.570;2024-01-06T02:23:27;99386.06;;;-15.14;54.04
37792;BME280;29527;55.766;37.570;2024-01-06T02:25:53;99412.09;;;-14.94;54.08
37792;BME280;29527;55.766;37.570;2024-01-06T02:28:19;99416.44;;;-14.90;54.18
37792;BME280;29527;55.766;37.570;2024-01-06T02:30:44;99413.88;;;-14.88;54.18
37792;BME280;29527;55.766;37.570;2024-01-06T02:33:10;99429.41;;;-14.80;54.58
37792;BME280;29527;55.766;37.570;2024-01-06T02:35:36;99413.22;;;-14.75;54.59
37792;BME280;29527;55.766;37.570;2024-01-06T02:38:01;99426.84;;;-14.80;55.00
37792;BME280;29527;55.766;37.570;2024-01-06T02:40:27;99421.53;;;-14.91;54.95
37792;BME280;29527;55.766;37.570;2024-01-06T02:42:53;99316.34;;;-15.40;54.81
37792;BME280;29527;55.766;37.570;2024-01-06T02:45:18;99413.88;;;-14.90;55.19
37792;BME280;29527;55.766;37.570;2024-01-06T02:47:44;99426.72;;;-14.90;55.51
37792;BME280;29527;55.766;37.570;2024-01-06T02:50:09;99418.16;;;-14.87;55.45
37792;BME280;29527;55.766;37.570;2024-01-06T02:52:35;99414.75;;;-14.86;55.72
37792;BME280;29527;55.766;37.570;2024-01-06T02:55:00;99421.69;;;-14.80;55.34
37792;BME280;29527;55.766;37.570;2024-01-06T02:57:28;99420.94;;;-14.73;55.37
37792;BME280;29527;55.766;37.570;2024-01-06T02:59:53;99419.22;;;-14.74;55.34
37792;BME280;29527;55.766;37.570;2024-01-06T03:02:19;99348.53;;;-15.06;55.21
37792;BME280;29527;55.766;37.570;2024-01-06T03:04:44;99403.88;;;-14.66;55.23
37792;BME280;29527;55.766;37.570;2024-01-06T03:07:10;99413.44;;;-14.58;54.73
37792;BME280;29527;55.766;37.570;2024-01-06T03:09:35;99396.28;;;-14.59;54.74
37792;BME280;29527;55.766;37.570;2024-01-06T03:12:01;99394.56;;;-14.60;54.92
37792;BME280;29527;55.766;37.570;2024-01-06T03:14:26;99396.38;;;-14.52;54.73
37792;BME280;29527;55.766;37.570;2024-01-06T03:16:52;99398.06;;;-14.54;54.60
37792;BME280;29527;55.766;37.570;2024-01-06T03:19:17;99384.38;;;-14.52;54.83
37792;BME280;29527;55.766;37.570;2024-01-06T03:21:43;99393.75;;;-14.57;55.02
37792;BME280;29527;55.766;37.570;2024-01-06T03:24:08;99382.75;;;-14.47;54.63
37792;BME280;29527;55.766;37.570;2024-01-06T03:26:36;99393.94;;;-14.42;54.63
37792;BME280;29527;55.766;37.570;2024-01-06T03:29:02;99380.25;;;-14.40;54.77
37792;BME280;29527;55.766;37.570;2024-01-06T03:31:29;99385.44;;;-14.36;54.46
37792;BME280;29527;55.766;37.570;2024-01-06T03:33:54;99393.97;;;-14.38;54.60
37792;BME280;29527;55.766;37.570;2024-01-06T03:36:21;99383.63;;;-14.46;54.46
37792;BME280;29527;55.766;37.570;2024-01-06T03:38:48;99395.63;;;-14.44;54.67
37792;BME280;29527;55.766;37.570;2024-01-06T03:41:13;99403.28;;;-14.48;54.75
37792;BME280;29527;55.766;37.570;2024-01-06T03:43:39;99409.38;;;-14.43;54.55
37792;BME280;29527;55.766;37.570;2024-01-06T03:46:05;99406.75;;;-14.46;54.53
37792;BME280;29527;55.766;37.570;2024-01-06T03:48:31;99405.06;;;-14.44;55.01
37792;BME280;29527;55.766;37.570;2024-01-06T03:50:58;99412.78;;;-14.44;54.28
37792;BME280;29527;55.766;37.570;2024-01-06T03:53:24;99407.63;;;-14.43;54.75
37792;BME280;29527;55.766;37.570;2024-01-06T03:55:50;99399.97;;;-14.41;54.80
37792;BME280;29527;55.766;37.570;2024-01-06T03:58:15;99411.13;;;-14.39;54.50
37792;BME280;29527;55.766;37.570;2024-01-06T04:00:41;99416.22;;;-14.42;54.50
37792;BME280;29527;55.766;37.570;2024-01-06T04:03:06;99418.84;;;-14.39;54.50
37792;BME280;29527;55.766;37.570;2024-01-06T04:05:32;99396.53;;;-14.40;54.59
37792;BME280;29527;55.766;37.570;2024-01-06T04:07:58;99401.69;;;-14.40;54.87
37792;BME280;29527;55.766;37.570;2024-01-06T04:10:23;99355.91;;;-14.67;54.46
37792;BME280;29527;55.766;37.570;2024-01-06T04:12:49;99396.63;;;-14.34;54.11
37792;BME280;29527;55.766;37.570;2024-01-06T04:15:14;99413.75;;;-14.36;54.52
37792;BME280;29527;55.766;37.570;2024-01-06T04:17:40;99413.78;;;-14.34;54.38
37792;BME280;29527;55.766;37.570;2024-01-06T04:20:05;99416.31;;;-14.36;54.65
37792;BME280;29527;55.766;37.570;2024-01-06T04:22:31;99418.88;;;-14.36;54.63
37792;BME280;29527;55.766;37.570;2024-01-06T04:24:57;99415.47;;;-14.35;54.62
37792;BME280;29527;55.766;37.570;2024-01-06T04:27:22;99423.06;;;-14.44;54.18
37792;BME280;29527;55.766;37.570;2024-01-06T04:29:48;99410.19;;;-14.46;55.14
37792;BME280;29527;55.766;37.570;2024-01-06T04:32:13;99420.66;;;-14.32;54.46
37792;BME280;29527;55.766;37.570;2024-01-06T04:34:39;99385.97;;;-14.60;54.42
37792;BME280;29527;55.766;37.570;2024-01-06T04:37:04;99405.69;;;-14.59;55.19
37792;BME280;29527;55.766;37.570;2024-01-06T04:39:30;99416.94;;;-14.52;54.88
37792;BME280;29527;55.766;37.570;2024-01-06T04:41:56;99411.09;;;-14.42;54.61
37792;BME280;29527;55.766;37.570;2024-01-06T04:44:21;99419.53;;;-14.49;54.90
37792;BME280;29527;55.766;37.570;2024-01-06T04:46:47;99414.41;;;-14.49;55.25
37792;BME280;29527;55.766;37.570;2024-01-06T04:49:13;99399.75;;;-14.57;54.86
37792;BME280;29527;55.766;37.570;2024-01-06T04:51:38;99362.72;;;-14.73;54.58
37792;BME280;29527;55.766;37.570;2024-01-06T04:54:04;99421.50;;;-14.34;54.84
37792;BME280;29527;55.766;37.570;2024-01-06T04:56:29;99418.91;;;-14.33;54.67
37792;BME280;29527;55.766;37.570;2024-01-06T04:58:55;99419.00;;;-14.26;54.81
37792;BME280;29527;55.766;37.570;2024-01-06T05:01:20;99425.94;;;-14.22;54.46
37792;BME280;29527;55.766;37.570;2024-01-06T05:03:46;99427.69;;;-14.18;54.49
37792;BME280;29527;55.766;37.570;2024-01-06T05:06:12;99423.44;;;-14.15;54.31
37792;BME280;29527;55.766;37.570;2024-01-06T05:08:38;99387.03;;;-14.46;54.55
37792;BME280;29527;55.766;37.570;2024-01-06T05:11:06;99433.66;;;-14.21;55.05
37792;BME280;29527;55.766;37.570;2024-01-06T05:13:32;99430.28;;;-14.17;55.23
37792;BME280;29527;55.766;37.570;2024-01-06T05:15:57;99437.09;;;-14.19;54.87
37792;BME280;29527;55.766;37.570;2024-01-06T05:18:23;99441.28;;;-14.25;54.05
37792;BME280;29527;55.766;37.570;2024-01-06T05:20:49;99433.34;;;-14.43;54.72
37792;BME280;29527;55.766;37.570;2024-01-06T05:23:14;99424.59;;;-14.57;54.31
37792;BME280;29527;55.766;37.570;2024-01-06T05:25:40;99444.28;;;-14.58;54.48
37792;BME280;29527;55.766;37.570;2024-01-06T05:28:05;99450.06;;;-14.76;54.41
37792;BME280;29527;55.766;37.570;2024-01-06T05:30:30;99453.38;;;-14.81;54.79
37792;BME280;29527;55.766;37.570;2024-01-06T05:32:56;99455.00;;;-14.87;55.03
37792;BME280;29527;55.766;37.570;2024-01-06T05:35:21;99454.09;;;-14.92;54.64
37792;BME280;29527;55.766;37.570;2024-01-06T05:37:47;99448.81;;;-14.98;55.10
37792;BME280;29527;55.766;37.570;2024-01-06T05:40:13;99438.25;;;-15.17;55.30
37792;BME280;29527;55.766;37.570;2024-01-06T05:42:40;99447.66;;;-15.19;55.21
37792;BME280;29527;55.766;37.570;2024-01-06T05:45:06;99438.03;;;-15.29;55.15
37792;BME280;29527;55.766;37.570;2024-01-06T05:47:31;99385.19;;;-15.67;55.53
37792;BME280;29527;55.766;37.570;2024-01-06T05:49:57;99447.28;;;-15.39;55.37
37792;BME280;29527;55.766;37.570;2024-01-06T05:52:22;99445.50;;;-15.43;55.69
37792;BME280;29527;55.766;37.570;2024-01-06T05:54:48;99433.41;;;-15.49;55.86
37792;BME280;29527;55.766;37.570;2024-01-06T05:57:14;99447.22;;;-15.42;55.64
37792;BME280;29527;55.766;37.570;2024-01-06T05:59:40;99443.81;;;-15.41;55.76
37792;BME280;29527;55.766;37.570;2024-01-06T06:02:06;99443.88;;;-15.38;55.77
37792;BME280;29527;55.766;37.570;2024-01-06T06:04:31;99455.97;;;-15.32;56.03
37792;BME280;29527;55.766;37.570;2024-01-06T06:06:57;99451.81;;;-15.25;55.99
37792;BME280;29527;55.766;37.570;2024-01-06T06:09:22;99460.72;;;-15.05;56.31
37792;BME280;29527;55.766;37.570;2024-01-06T06:11:48;99459.28;;;-14.87;55.94
37792;BME280;29527;55.766;37.570;2024-01-06T06:14:14;99457.69;;;-14.80;55.43
37792;BME280;29527;55.766;37.570;2024-01-06T06:16:39;99471.72;;;-14.57;54.68
37792;BME280;29527;55.766;37.570;2024-01-06T06:19:05;99482.13;;;-14.47;54.72
37792;BME280;29527;55.766;37.570;2024-01-06T06:21:31;99449.53;;;-14.48;54.12
37792;BME280;29527;55.766;37.570;2024-01-06T06:23:56;99460.88;;;-14.35;53.89
37792;BME280;29527;55.766;37.570;2024-01-06T06:26:22;99457.38;;;-14.40;54.03
37792;BME280;29527;55.766;37.570;2024-01-06T06:28:47;99471.19;;;-14.34;53.73
37792;BME280;29527;55.766;37.570;2024-01-06T06:31:13;99480.69;;;-14.30;54.01
37792;BME280;29527;55.766;37.570;2024-01-06T06:33:38;99482.44;;;-14.25;53.79
37792;BME280;29527;55.766;37.570;2024-01-06T06:36:05;99472.31;;;-14.16;53.62
37792;BME280;29527;55.766;37.570;2024-01-06T06:38:32;99472.34;;;-14.13;53.77
37792;BME280;29527;55.766;37.570;2024-01-06T06:40:57;99472.44;;;-14.05;53.04
37792;BME280;29527;55.766;37.570;2024-01-06T06:43:23;99471.66;;;-14.01;52.96
37792;BME280;29527;55.766;37.570;2024-01-06T06:45:49;99479.38;;;-14.00;53.24
37792;BME280;29527;55.766;37.570;2024-01-06T06:48:14;99480.28;;;-13.97;53.46
37792;BME280;29527;55.766;37.570;2024-01-06T06:50:40;99490.59;;;-13.93;53.13
37792;BME280;29527;55.766;37.570;2024-01-06T06:53:09;99494.97;;;-13.87;52.69
37792;BME280;29527;55.766;37.570;2024-01-06T06:55:34;99461.31;;;-14.03;53.07
37792;BME280;29527;55.766;37.570;2024-01-06T06:58:00;99466.59;;;-13.93;52.78
37792;BME280;29527;55.766;37.570;2024-01-06T07:00:25;99485.59;;;-13.82;52.65
37792;BME280;29527;55.766;37.570;2024-01-06T07:02:51;99488.25;;;-13.77;52.38
37792;BME280;29527;55.766;37.570;2024-01-06T07:05:16;99468.41;;;-13.86;52.26
37792;BME280;29527;55.766;37.570;2024-01-06T07:07:42;99488.31;;;-13.73;52.60
37792;BME280;29527;55.766;37.570;2024-01-06T07:10:12;99479.69;;;-13.75;52.24
37792;BME280;29527;55.766;37.570;2024-01-06T07:12:38;99486.66;;;-13.67;52.64
37792;BME280;29527;55.766;37.570;2024-01-06T07:15:04;99484.16;;;-13.58;52.38
37792;BME280;29527;55.766;37.570;2024-01-06T07:17:30;99484.28;;;-13.49;52.00
37792;BME280;29527;55.766;37.570;2024-01-06T07:19:56;99480.91;;;-13.45;52.29
37792;BME280;29527;55.766;37.570;2024-01-06T07:22:22;99471.44;;;-13.44;52.23
37792;BME280;29527;55.766;37.570;2024-01-06T07:24:47;99479.34;;;-13.25;52.48
37792;BME280;29527;55.766;37.570;2024-01-06T07:27:13;99477.81;;;-13.06;51.62
37792;BME280;29527;55.766;37.570;2024-01-06T07:29:38;99484.00;;;-12.89;51.63
37792;BME280;29527;55.766;37.570;2024-01-06T07:32:04;99477.09;;;-12.90;51.22
37792;BME280;29527;55.766;37.570;2024-01-06T07:34:32;99483.25;;;-12.75;51.09
37792;BME280;29527;55.766;37.570;2024-01-06T07:36:57;99491.84;;;-12.75;51.19
37792;BME280;29527;55.766;37.570;2024-01-06T07:39:23;99489.28;;;-12.76;51.03
37792;BME280;29527;55.766;37.570;2024-01-06T07:41:50;99499.63;;;-12.69;50.97
37792;BME280;29527;55.766;37.570;2024-01-06T07:44:15;99491.00;;;-12.72;51.26
37792;BME280;29527;55.766;37.570;2024-01-06T07:46:41;99499.59;;;-12.72;51.29
37792;BME280;29527;55.766;37.570;2024-01-06T07:49:07;99481.53;;;-12.76;51.45
37792;BME280;29527;55.766;37.570;2024-01-06T07:51:33;99481.59;;;-12.67;51.10
37792;BME280;29527;55.766;37.570;2024-01-06T07:54:00;99493.69;;;-12.61;50.97
37792;BME280;29527;55.766;37.570;2024-01-06T07:56:26;99497.97;;;-12.62;50.77
37792;BME280;29527;55.766;37.570;2024-01-06T07:58:52;99493.72;;;-12.55;51.21
37792;BME280;29527;55.766;37.570;2024-01-06T08:01:18;99486.81;;;-12.58;51.19
37792;BME280;29527;55.766;37.570;2024-01-06T08:03:43;99491.22;;;-12.47;50.96
37792;BME280;29527;55.766;37.570;2024-01-06T08:06:10;99488.63;;;-12.43;51.13
37792;BME280;29527;55.766;37.570;2024-01-06T08:08:35;99481.84;;;-12.33;50.81
37792;BME280;29527;55.766;37.570;2024-01-06T08:11:01;99489.63;;;-12.28;50.33
37792;BME280;29527;55.766;37.570;2024-01-06T08:13:26;99474.16;;;-12.23;50.42
37792;BME280;29527;55.766;37.570;2024-01-06T08:15:52;99480.13;;;-12.31;50.37
37792;BME280;29527;55.766;37.570;2024-01-06T08:18:17;99466.38;;;-12.34;50.51
37792;BME280;29527;55.766;37.570;2024-01-06T08:20:43;99447.41;;;-12.39;50.28
37792;BME280;29527;55.766;37.570;2024-01-06T08:23:09;99438.66;;;-12.59;50.35
37792;BME280;29527;55.766;37.570;2024-01-06T08:25:36;99454.25;;;-12.43;50.17
37792;BME280;29527;55.766;37.570;2024-01-06T08:28:01;99467.28;;;-12.28;50.57
37792;BME280;29527;55.766;37.570;2024-01-06T08:30:27;99472.50;;;-12.17;50.47
37792;BME280;29527;55.766;37.570;2024-01-06T08:32:52;99458.75;;;-12.11;50.25
37792;BME280;29527;55.766;37.570;2024-01-06T08:35:18;99460.53;;;-12.04;50.59
37792;BME280;29527;55.766;37.570;2024-01-06T08:37:45;99447.63;;;-11.94;49.66
37792;BME280;29527;55.766;37.570;2024-01-06T08:40:11;99451.91;;;-12.00;49.79
37792;BME280;29527;55.766;37.570;2024-01-06T08:42:37;99465.69;;;-11.98;49.95
37792;BME280;29527;55.766;37.570;2024-01-06T08:45:04;99457.97;;;-11.87;49.90
37792;BME280;29527;55.766;37.570;2024-01-06T08:47:31;99476.09;;;-11.77;49.14
37792;BME280;29527;55.766;37.570;2024-01-06T08:49:56;99444.16;;;-12.04;49.62
37792;BME280;29527;55.766;37.570;2024-01-06T08:52:22;99477.81;;;-11.81;50.46
37792;BME280;29527;55.766;37.570;2024-01-06T08:54:48;99473.53;;;-11.76;50.05
37792;BME280;29527;55.766;37.570;2024-01-06T08:57:17;99455.47;;;-11.73;49.93
37792;BME280;29527;55.766;37.570;2024-01-06T08:59:43;99460.63;;;-11.71;49.61
37792;BME280;29527;55.766;37.570;2024-01-06T09:02:10;99470.09;;;-11.75;49.90
37792;BME280;29527;55.766;37.570;2024-01-06T09:04:36;99420.91;;;-12.06;50.10
37792;BME280;29527;55.766;37.570;2024-01-06T09:07:02;99418.38;;;-11.90;50.64
37792;BME280;29527;55.766;37.570;2024-01-06T09:09:27;99446.00;;;-11.69;49.86
37792;BME280;29527;55.766;37.570;2024-01-06T09:11:53;99446.00;;;-11.68;49.10
37792;BME280;29527;55.766;37.570;2024-01-06T09:14:19;99442.53;;;-11.73;49.44
37792;BME280;29527;55.766;37.570;2024-01-06T09:16:45;99444.28;;;-11.72;50.33
37792;BME280;29527;55.766;37.570;2024-01-06T09:19:10;99453.75;;;-11.64;49.84
37792;BME280;29527;55.766;37.570;2024-01-06T09:21:36;99446.91;;;-11.56;49.63
37792;BME280;29527;55.766;37.570;2024-01-06T09:24:02;99448.63;;;-11.54;49.84
37792;BME280;29527;55.766;37.570;2024-01-06T09:26:34;99439.16;;;-11.48;49.51
37792;BME280;29527;55.766;37.570;2024-01-06T09:29:01;99444.34;;;-11.44;49.44
37792;BME280;29527;55.766;37.570;2024-01-06T09:31:27;99445.22;;;-11.39;49.93
37792;BME280;29527;55.766;37.570;2024-01-06T09:33:52;99434.88;;;-11.35;49.49
37792;BME280;29527;55.766;37.570;2024-01-06T09:36:18;99433.16;;;-11.33;49.40
37792;BME280;29527;55.766;37.570;2024-01-06T09:38:43;99428.84;;;-11.37;49.88
37792;BME280;29527;55.766;37.570;2024-01-06T09:41:09;99428.00;;;-11.36;50.43
37792;BME280;29527;55.766;37.570;2024-01-06T09:43:35;99424.59;;;-11.26;49.73
37792;BME280;29527;55.766;37.570;2024-01-06T09:46:24;99438.38;;;-11.19;49.76
37792;BME280;29527;55.766;37.570;2024-01-06T09:48:55;99429.72;;;-11.39;49.69
37792;BME280;29527;55.766;37.570;2024-01-06T09:51:22;99442.59;;;-11.46;49.96
37792;BME280;29527;55.766;37.570;2024-01-06T09:53:49;99437.47;;;-11.40;50.42
37792;BME280;29527;55.766;37.570;2024-01-06T09:56:18;99434.88;;;-11.35;49.96
37792;BME280;29527;55.766;37.570;2024-01-06T09:58:44;99432.34;;;-11.32;50.68
37792;BME280;29527;55.766;37.570;2024-01-06T10:01:10;99436.63;;;-11.33;49.76
37792;BME280;29527;55.766;37.570;2024-01-06T10:03:37;99422.81;;;-11.36;49.87
37792;BME280;29527;55.766;37.570;2024-01-06T10:06:03;99429.72;;;-11.45;50.19
37792;BME280;29527;55.766;37.570;2024-01-06T10:08:30;99390.91;;;-11.68;50.27
37792;BME280;29527;55.766;37.570;2024-01-06T10:10:59;99413.31;;;-11.48;50.60
37792;BME280;29527;55.766;37.570;2024-01-06T10:13:25;99421.97;;;-11.39;50.04
37792;BME280;29527;55.766;37.570;2024-01-06T10:15:50;99431.44;;;-11.39;50.65
37792;BME280;29527;55.766;37.570;2024-01-06T10:18:16;99424.59;;;-11.29;50.47
37792;BME280;29527;55.766;37.570;2024-01-06T10:20:44;99402.16;;;-11.35;50.59
37792;BME280;29527;55.766;37.570;2024-01-06T10:23:10;99365.13;;;-11.51;50.54
37792;BME280;29527;55.766;37.570;2024-01-06T10:25:35;99415.09;;;-11.21;50.29
37792;BME280;29527;55.766;37.570;2024-01-06T10:28:01;99421.13;;;-11.22;50.29
37792;BME280;29527;55.766;37.570;2024-01-06T10:30:29;99412.50;;;-11.33;49.67
37792;BME280;29527;55.766;37.570;2024-01-06T10:32:55;99413.38;;;-11.22;50.11
37792;BME280;29527;55.766;37.570;2024-01-06T10:35:20;99406.47;;;-11.40;50.09
37792;BME280;29527;55.766;37.570;2024-01-06T10:37:47;99384.88;;;-11.62;50.16
37792;BME280;29527;55.766;37.570;2024-01-06T10:40:15;99398.66;;;-11.68;50.44
37792;BME280;29527;55.766;37.570;2024-01-06T10:42:45;99401.25;;;-11.59;50.30
37792;BME280;29527;55.766;37.570;2024-01-06T10:45:12;99405.44;;;-11.93;51.12
37792;BME280;29527;55.766;37.570;2024-01-06T10:47:41;99347.72;;;-12.27;51.61
37792;BME280;29527;55.766;37.570;2024-01-06T10:50:07;99401.22;;;-11.70;50.59
37792;BME280;29527;55.766;37.570;2024-01-06T10:52:34;99384.84;;;-11.86;50.87
37792;BME280;29527;55.766;37.570;2024-01-06T10:55:04;99402.03;;;-11.83;51.64
37792;BME280;29527;55.766;37.570;2024-01-06T10:57:30;99400.34;;;-11.81;50.75
37792;BME280;29527;55.766;37.570;2024-01-06T10:59:59;99388.22;;;-11.98;51.32
37792;BME280;29527;55.766;37.570;2024-01-06T11:02:26;99398.56;;;-11.98;51.63
37792;BME280;29527;55.766;37.570;2024-01-06T11:04:52;99396.03;;;-11.80;51.14
37792;BME280;29527;55.766;37.570;2024-01-06T11:07:23;99336.53;;;-12.29;51.30
37792;BME280;29527;55.766;37.570;2024-01-06T11:10:06;99390.84;;;-12.01;52.05
37792;BME280;29527;55.766;37.570;2024-01-06T11:12:34;99391.72;;;-11.85;51.29
37792;BME280;29527;55.766;37.570;2024-01-06T11:14:59;99392.50;;;-11.98;52.01
37792;BME280;29527;55.766;37.570;2024-01-06T11:20:12;99334.78;;;-12.30;51.57
37792;BME280;29527;55.766;37.570;2024-01-06T11:22:37;99386.44;;;-12.23;52.52
37792;BME280;29527;55.766;37.570;2024-01-06T11:25:06;99371.88;;;-11.98;51.92
37792;BME280;29527;55.766;37.570;2024-01-06T11:27:33;99329.56;;;-12.44;51.68
37792;BME280;29527;55.766;37.570;2024-01-06T11:30:00;99367.38;;;-12.46;52.89
37792;BME280;29527;55.766;37.570;2024-01-06T11:32:35;99387.25;;;-12.32;52.96
37792;BME280;29527;55.766;37.570;2024-01-06T11:42:36;99403.75;;;-11.88;52.30
37792;BME280;29527;55.766;37.570;2024-01-06T11:45:03;99405.53;;;-11.75;51.89
37792;BME280;29527;55.766;37.570;2024-01-06T11:47:32;99399.44;;;-11.91;52.09
37792;BME280;29527;55.766;37.570;2024-01-06T11:49:59;99402.03;;;-11.86;51.87
37792;BME280;29527;55.766;37.570;2024-01-06T11:52:25;99407.19;;;-12.02;52.14
37792;BME280;29527;55.766;37.570;2024-01-06T11:54:54;99405.38;;;-12.18;52.73
37792;BME280;29527;55.766;37.570;2024-01-06T11:57:21;99411.34;;;-12.29;53.35
37792;BME280;29527;55.766;37.570;2024-01-06T11:59:47;99412.28;;;-12.14;53.24
37792;BME280;29527;55.766;37.570;2024-01-06T12:02:13;99413.16;;;-12.06;52.91
37792;BME280;29527;55.766;37.570;2024-01-06T12:04:40;99421.78;;;-11.98;52.66
37792;BME280;29527;55.766;37.570;2024-01-06T12:07:08;99410.59;;;-11.97;52.41
37792;BME280;29527;55.766;37.570;2024-01-06T12:09:34;99409.75;;;-11.95;52.77
37792;BME280;29527;55.766;37.570;2024-01-06T12:12:04;99417.50;;;-11.89;52.94
37792;BME280;29527;55.766;37.570;2024-01-06T12:14:34;99369.25;;;-12.15;52.84
37792;BME280;29527;55.766;37.570;2024-01-06T12:17:00;99415.78;;;-11.87;52.54
37792;BME280;29527;55.766;37.570;2024-01-06T12:19:33;99411.47;;;-11.91;53.23
37792;BME280;29527;55.766;37.570;2024-01-06T12:21:59;99420.06;;;-11.94;53.03
37792;BME280;29527;55.766;37.570;2024-01-06T12:24:27;99410.69;;;-11.81;53.09
37792;BME280;29527;55.766;37.570;2024-01-06T12:26:55;99414.03;;;-11.99;53.01
37792;BME280;29527;55.766;37.570;2024-01-06T12:29:21;99403.66;;;-12.19;53.70
37792;BME280;29527;55.766;37.570;2024-01-06T12:31:47;99423.47;;;-12.12;53.33
37792;BME280;29527;55.766;37.570;2024-01-06T12:34:12;99371.63;;;-12.57;53.58
37792;BME280;29527;55.766;37.570;2024-01-06T12:36:38;99423.47;;;-12.14;53.52
37792;BME280;29527;55.766;37.570;2024-01-06T12:39:05;99425.16;;;-12.23;54.12
37792;BME280;29527;55.766;37.570;2024-01-06T12:41:31;99429.44;;;-12.21;53.80
37792;BME280;29527;55.766;37.570;2024-01-06T12:44:00;99429.44;;;-12.26;54.29
37792;BME280;29527;55.766;37.570;2024-01-06T12:46:26;99424.31;;;-12.16;54.23